OOSHT ELLX-ZZZZ
Flight info
| Callsign | OOSHT |
|---|---|
| Flight time | N/A |
| Altitude | 2000 |
| Route | DCT |
| Aircraft | R22/L-SDY/A |
Departure
| Time | 2026-05-01 14:57 |
|---|---|
| Airport | Luxembourg-Findel International Airport (ELLX) |
Arrival
| Time | N/A |
|---|---|
| Airport | ZZZZ |
| Time | Latitude | Longitude | Altitude | Speed | Heading |
|---|---|---|---|---|---|
| 2026-05-01 14:34 | 49.62412 | 6.19678 | 1196 ft | 0 kts | 59° |
| 2026-05-01 14:52 | 49.62419 | 6.19691 | 1199 ft | 2 kts | 74° |
| 2026-05-01 14:52 | 49.62420 | 6.19709 | 1201 ft | 2 kts | 98° |
| 2026-05-01 14:52 | 49.62395 | 6.19746 | 1199 ft | 0 kts | 134° |
| 2026-05-01 14:53 | 49.62395 | 6.19745 | 1197 ft | 0 kts | 130° |
| 2026-05-01 14:54 | 49.62394 | 6.19744 | 1201 ft | 1 kts | 131° |
| 2026-05-01 14:54 | 49.62380 | 6.19766 | 1203 ft | 4 kts | 149° |
| 2026-05-01 14:55 | 49.62349 | 6.19798 | 1210 ft | 6 kts | 166° |
| 2026-05-01 14:55 | 49.62313 | 6.19776 | 1210 ft | 13 kts | 234° |
| 2026-05-01 14:55 | 49.62273 | 6.19675 | 1213 ft | 13 kts | 233° |
| 2026-05-01 14:55 | 49.62232 | 6.19573 | 1200 ft | 7 kts | 243° |
| 2026-05-01 14:56 | 49.62190 | 6.19568 | 1208 ft | 8 kts | 149° |
| 2026-05-01 14:56 | 49.62120 | 6.19624 | 1215 ft | 9 kts | 123° |
| 2026-05-01 14:56 | 49.62084 | 6.19658 | 1203 ft | 9 kts | 67° |
| 2026-05-01 14:56 | 49.62183 | 6.19922 | 1278 ft | 43 kts | 53° |
| 2026-05-01 14:57 | 49.62342 | 6.20347 | 1458 ft | 56 kts | 53° |
| 2026-05-01 14:57 | 49.62700 | 6.21348 | 1857 ft | 57 kts | 62° |
| 2026-05-01 14:57 | 49.62784 | 6.22002 | 1934 ft | 65 kts | 95° |
| 2026-05-01 14:58 | 49.62568 | 6.22617 | 1982 ft | 70 kts | 139° |
| 2026-05-01 14:58 | 49.62154 | 6.23041 | 2024 ft | 71 kts | 148° |
| 2026-05-01 14:58 | 49.61749 | 6.23473 | 2049 ft | 73 kts | 135° |
| 2026-05-01 14:58 | 49.61296 | 6.23799 | 2022 ft | 73 kts | 177° |
| 2026-05-01 14:59 | 49.60728 | 6.23172 | 2004 ft | 82 kts | 234° |
| 2026-05-01 14:59 | 49.60613 | 6.22571 | 1966 ft | 90 kts | 252° |
| 2026-05-01 14:59 | 49.60537 | 6.21612 | 1972 ft | 89 kts | 258° |
| 2026-05-01 14:59 | 49.60457 | 6.20659 | 1893 ft | 89 kts | 255° |
| 2026-05-01 15:00 | 49.60754 | 6.18874 | 1726 ft | 80 kts | 297° |
| 2026-05-01 15:00 | 49.61053 | 6.18250 | 1625 ft | 69 kts | 306° |
| 2026-05-01 15:00 | 49.61462 | 6.18030 | 1482 ft | 57 kts | 32° |
| 2026-05-01 15:01 | 49.61659 | 6.18476 | 1390 ft | 51 kts | 63° |
| 2026-05-01 15:01 | 49.61847 | 6.19006 | 1272 ft | 58 kts | 60° |
| 2026-05-01 15:01 | 49.62008 | 6.19439 | 1215 ft | 27 kts | 62° |
| 2026-05-01 15:01 | 49.62032 | 6.19520 | 1186 ft | 3 kts | 57° |
| 2026-05-01 15:02 | 49.62123 | 6.19761 | 1247 ft | 47 kts | 54° |
| 2026-05-01 15:02 | 49.62245 | 6.20081 | 1350 ft | 59 kts | 56° |
| 2026-05-01 15:02 | 49.62530 | 6.20777 | 1607 ft | 60 kts | 54° |
| 2026-05-01 15:02 | 49.62746 | 6.21364 | 1767 ft | 66 kts | 60° |
| 2026-05-01 15:03 | 49.62830 | 6.22282 | 1838 ft | 69 kts | 114° |
| 2026-05-01 15:03 | 49.62583 | 6.22561 | 1920 ft | 70 kts | 150° |
| 2026-05-01 15:03 | 49.62116 | 6.22762 | 1994 ft | 72 kts | 160° |
| 2026-05-01 15:03 | 49.61470 | 6.23101 | 2004 ft | 75 kts | 151° |
| 2026-05-01 15:04 | 49.61172 | 6.23378 | 1978 ft | 78 kts | 154° |
| 2026-05-01 15:04 | 49.60669 | 6.23172 | 1923 ft | 78 kts | 221° |
| 2026-05-01 15:04 | 49.60514 | 6.22346 | 1905 ft | 89 kts | 261° |
| 2026-05-01 15:04 | 49.60475 | 6.21413 | 1892 ft | 82 kts | 255° |
| 2026-05-01 15:05 | 49.60405 | 6.20494 | 1813 ft | 92 kts | 253° |
| 2026-05-01 15:05 | 49.60434 | 6.19517 | 1726 ft | 95 kts | 287° |
| 2026-05-01 15:05 | 49.60785 | 6.18662 | 1592 ft | 93 kts | 299° |
| 2026-05-01 15:05 | 49.61188 | 6.17969 | 1503 ft | 82 kts | 324° |
| 2026-05-01 15:06 | 49.61624 | 6.18210 | 1386 ft | 63 kts | 67° |
| 2026-05-01 15:06 | 49.61781 | 6.18806 | 1260 ft | 55 kts | 65° |
| 2026-05-01 15:06 | 49.61926 | 6.19222 | 1190 ft | 25 kts | 68° |
| 2026-05-01 15:06 | 49.61958 | 6.19317 | 1189 ft | 15 kts | 52° |
| 2026-05-01 15:07 | 49.62088 | 6.19665 | 1282 ft | 55 kts | 58° |
| 2026-05-01 15:07 | 49.62307 | 6.20235 | 1466 ft | 67 kts | 59° |
| 2026-05-01 15:07 | 49.62541 | 6.20849 | 1656 ft | 67 kts | 64° |
| 2026-05-01 15:07 | 49.62845 | 6.21790 | 1814 ft | 79 kts | 74° |
| 2026-05-01 15:08 | 49.62807 | 6.22326 | 1863 ft | 71 kts | 113° |
| 2026-05-01 15:08 | 49.62423 | 6.22768 | 1927 ft | 71 kts | 161° |
| 2026-05-01 15:08 | 49.61962 | 6.23011 | 1962 ft | 69 kts | 156° |
| 2026-05-01 15:08 | 49.61492 | 6.23232 | 1989 ft | 72 kts | 160° |
| 2026-05-01 15:09 | 49.60965 | 6.23225 | 1901 ft | 79 kts | 199° |
| 2026-05-01 15:09 | 49.60627 | 6.22506 | 1856 ft | 80 kts | 236° |
| 2026-05-01 15:09 | 49.60472 | 6.21689 | 1821 ft | 86 kts | 249° |
| 2026-05-01 15:09 | 49.60356 | 6.20812 | 1749 ft | 83 kts | 251° |
| 2026-05-01 15:10 | 49.60268 | 6.19661 | 1749 ft | 79 kts | 247° |
| 2026-05-01 15:10 | 49.59713 | 6.19029 | 1887 ft | 58 kts | 164° |
| 2026-05-01 15:10 | 49.59349 | 6.19462 | 1847 ft | 75 kts | 124° |
| 2026-05-01 15:11 | 49.59356 | 6.20214 | 1920 ft | 72 kts | 67° |
| 2026-05-01 15:11 | 49.60161 | 6.19994 | 2060 ft | 66 kts | 268° |
| 2026-05-01 15:11 | 49.59991 | 6.19417 | 2040 ft | 61 kts | 191° |
| 2026-05-01 15:12 | 49.59644 | 6.19632 | 2043 ft | 61 kts | 123° |
| 2026-05-01 15:12 | 49.60109 | 6.20240 | 2061 ft | 71 kts | 333° |
| 2026-05-01 15:12 | 49.60353 | 6.19596 | 2000 ft | 75 kts | 258° |
| 2026-05-01 15:13 | 49.60072 | 6.19983 | 1878 ft | 68 kts | 5° |
| 2026-05-01 15:14 | 49.60426 | 6.19026 | 1965 ft | 53 kts | 233° |
| 2026-05-01 15:14 | 49.60020 | 6.19012 | 1958 ft | 59 kts | 131° |
| 2026-05-01 15:14 | 49.59788 | 6.19985 | 1937 ft | 64 kts | 62° |
| 2026-05-01 15:15 | 49.60358 | 6.19416 | 1956 ft | 59 kts | 221° |
| 2026-05-01 15:15 | 49.59954 | 6.19898 | 2011 ft | 64 kts | 75° |
| 2026-05-01 15:16 | 49.60543 | 6.20030 | 2040 ft | 68 kts | 283° |
| 2026-05-01 15:16 | 49.60752 | 6.18445 | 1841 ft | 85 kts | 301° |
| 2026-05-01 15:17 | 49.61665 | 6.18251 | 1433 ft | 70 kts | 71° |
| 2026-05-01 15:18 | 49.62082 | 6.19656 | 1210 ft | 19 kts | 70° |
| 2026-05-01 15:18 | 49.62221 | 6.20025 | 1276 ft | 51 kts | 61° |
| 2026-05-01 15:19 | 49.62799 | 6.21625 | 1769 ft | 64 kts | 62° |
| 2026-05-01 15:19 | 49.62254 | 6.22551 | 1986 ft | 66 kts | 159° |
| 2026-05-01 15:19 | 49.61815 | 6.22835 | 2008 ft | 69 kts | 158° |
| 2026-05-01 15:20 | 49.61021 | 6.23229 | 1973 ft | 76 kts | 187° |
| 2026-05-01 15:20 | 49.60650 | 6.22685 | 1949 ft | 83 kts | 245° |
| 2026-05-01 15:20 | 49.60544 | 6.21838 | 1927 ft | 76 kts | 251° |
| 2026-05-01 15:21 | 49.60395 | 6.21061 | 1853 ft | 78 kts | 239° |
| 2026-05-01 15:21 | 49.60264 | 6.20266 | 1775 ft | 83 kts | 251° |
| 2026-05-01 15:21 | 49.60122 | 6.19436 | 1799 ft | 69 kts | 246° |
| 2026-05-01 15:21 | 49.59703 | 6.19336 | 1860 ft | 56 kts | 116° |
| 2026-05-01 15:22 | 49.60176 | 6.20099 | 1866 ft | 81 kts | 352° |
| 2026-05-01 15:22 | 49.60558 | 6.19590 | 1841 ft | 78 kts | 282° |
| 2026-05-01 15:22 | 49.60452 | 6.18815 | 1823 ft | 71 kts | 214° |
| 2026-05-01 15:23 | 49.60060 | 6.18821 | 1886 ft | 60 kts | 126° |
| 2026-05-01 15:23 | 49.59941 | 6.19518 | 1888 ft | 72 kts | 114° |
| 2026-05-01 15:23 | 49.60003 | 6.20238 | 1874 ft | 81 kts | 39° |
| 2026-05-01 15:23 | 49.60588 | 6.19882 | 1843 ft | 83 kts | 284° |
| 2026-05-01 15:24 | 49.60709 | 6.19302 | 1817 ft | 80 kts | 274° |
| 2026-05-01 15:24 | 49.60949 | 6.18488 | 1728 ft | 88 kts | 294° |
| 2026-05-01 15:24 | 49.61427 | 6.17956 | 1533 ft | 86 kts | 2° |
| 2026-05-01 15:24 | 49.61747 | 6.18548 | 1378 ft | 81 kts | 77° |
| 2026-05-01 15:25 | 49.61949 | 6.19265 | 1204 ft | 57 kts | 55° |
| 2026-05-01 15:25 | 49.62039 | 6.19530 | 1195 ft | 6 kts | 73° |
| 2026-05-01 15:25 | 49.62146 | 6.19822 | 1257 ft | 54 kts | 62° |
| 2026-05-01 15:25 | 49.62443 | 6.20621 | 1473 ft | 68 kts | 63° |
| 2026-05-01 15:26 | 49.62598 | 6.21037 | 1585 ft | 69 kts | 64° |
| 2026-05-01 15:26 | 49.62837 | 6.21747 | 1735 ft | 72 kts | 65° |
| 2026-05-01 15:26 | 49.62706 | 6.22370 | 1806 ft | 69 kts | 148° |
| 2026-05-01 15:26 | 49.62268 | 6.22654 | 1927 ft | 68 kts | 162° |
| 2026-05-01 15:27 | 49.61811 | 6.22895 | 1961 ft | 75 kts | 156° |
| 2026-05-01 15:27 | 49.61295 | 6.23216 | 1915 ft | 81 kts | 151° |
| 2026-05-01 15:27 | 49.60773 | 6.23083 | 1846 ft | 82 kts | 216° |
| 2026-05-01 15:28 | 49.60513 | 6.21429 | 1852 ft | 82 kts | 253° |
| 2026-05-01 15:28 | 49.60389 | 6.20553 | 1794 ft | 81 kts | 248° |
| 2026-05-01 15:28 | 49.60330 | 6.19751 | 1767 ft | 78 kts | 282° |
| 2026-05-01 15:29 | 49.60992 | 6.18270 | 1550 ft | 88 kts | 306° |
| 2026-05-01 15:29 | 49.61517 | 6.18009 | 1523 ft | 76 kts | 15° |
| 2026-05-01 15:29 | 49.61940 | 6.19230 | 1211 ft | 55 kts | 58° |
| 2026-05-01 15:30 | 49.62235 | 6.20060 | 1234 ft | 49 kts | 63° |
| 2026-05-01 15:31 | 49.62537 | 6.20458 | 1235 ft | 10 kts | 278° |
| 2026-05-01 15:31 | 49.62450 | 6.20152 | 1216 ft | 8 kts | 245° |
| 2026-05-01 15:32 | 49.62394 | 6.20003 | 1209 ft | 12 kts | 244° |
| 2026-05-01 15:32 | 49.62335 | 6.19828 | 1207 ft | 10 kts | 300° |
| 2026-05-01 15:33 | 49.62421 | 6.19710 | 1197 ft | 0 kts | 234° |